createdAt,value
2019-05-23T00:04:54.247Z,94641.89
2019-05-23T00:10:23.103Z,94650.45
2019-05-23T00:15:29.736Z,94642.22
2019-05-23T00:20:32.428Z,94642.74
2019-05-23T00:25:36.233Z,94646.97
2019-05-23T00:30:40.093Z,94647.88
2019-05-23T00:35:42.380Z,94646.57
2019-05-23T00:40:46.080Z,94650.99
2019-05-23T00:45:48.500Z,94647.50
2019-05-23T00:50:50.739Z,94646.95
2019-05-23T00:55:53.403Z,94650.37
2019-05-23T01:00:57.130Z,94640.92
2019-05-23T01:05:59.823Z,94643.18
2019-05-23T01:11:03.336Z,94644.27
2019-05-23T01:16:06.631Z,94635.11
2019-05-23T01:21:22.256Z,94643.72
2019-05-23T01:26:24.448Z,94644.19
2019-05-23T01:31:37.382Z,94648.72
2019-05-23T01:36:39.201Z,94658.13
2019-05-23T01:41:41.968Z,94644.80
2019-05-23T01:46:44.421Z,94629.95
2019-05-23T01:51:46.948Z,94631.77
2019-05-23T01:56:48.878Z,94634.05
2019-05-23T02:01:51.623Z,94631.70
2019-05-23T02:06:53.926Z,94633.17
2019-05-23T02:11:56.077Z,94626.00
2019-05-23T02:16:58.092Z,94621.19
2019-05-23T02:22:00.520Z,94622.52
2019-05-23T02:27:02.522Z,94624.73
2019-05-23T02:32:06.886Z,94628.29
2019-05-23T02:37:11.148Z,94628.42
2019-05-23T02:42:14.796Z,94613.61
2019-05-23T02:47:34.285Z,94604.78
2019-05-23T02:52:48.988Z,94614.04
2019-05-23T02:57:51.860Z,94617.22
2019-05-23T03:02:57.187Z,94617.44
2019-05-23T03:08:00.660Z,94619.45
2019-05-23T03:13:04.847Z,94620.78
2019-05-23T03:18:08.737Z,94616.57
2019-05-23T03:23:12.018Z,94617.80
2019-05-23T03:28:15.520Z,94616.62
2019-05-23T03:33:19.412Z,94610.83
2019-05-23T03:38:22.649Z,94617.05
2019-05-23T03:43:26.316Z,94616.84
2019-05-23T03:48:29.090Z,94611.38
2019-05-23T03:53:31.672Z,94613.80
2019-05-23T03:58:33.965Z,94613.72
2019-05-23T04:03:39.863Z,94622.33
2019-05-23T04:08:41.245Z,94622.33
2019-05-23T04:13:43.766Z,94623.06
2019-05-23T04:18:46.047Z,94633.45
2019-05-23T04:23:48.395Z,94633.73
2019-05-23T04:28:50.981Z,94636.48
2019-05-23T04:33:52.948Z,94639.48
2019-05-23T04:38:54.775Z,94642.45
2019-05-23T04:43:56.740Z,94649.13
2019-05-23T04:48:59.147Z,94651.48
2019-05-23T04:54:01.490Z,94659.58
2019-05-23T04:59:04.121Z,94666.21
2019-05-23T05:04:06.798Z,94665.27
2019-05-23T05:09:10.588Z,94673.67
2019-05-23T05:14:12.718Z,94681.55
2019-05-23T05:19:14.949Z,94682.36
2019-05-23T05:24:17.125Z,94698.88
2019-05-23T05:29:20.682Z,94700.11
2019-05-23T05:34:22.826Z,94698.91
2019-05-23T05:39:24.991Z,94696.70
2019-05-23T05:44:27.220Z,94700.06
2019-05-23T05:49:29.184Z,94704.47
2019-05-23T05:54:31.410Z,94693.08
2019-05-23T05:59:33.550Z,94696.16
2019-05-23T06:04:35.721Z,94697.50
2019-05-23T06:09:38.772Z,94687.27
2019-05-23T06:14:40.849Z,94694.13
2019-05-23T06:19:43.715Z,94693.89
2019-05-23T06:24:50.521Z,94702.75
2019-05-23T06:29:50.021Z,94697.96
2019-05-23T06:34:55.328Z,94693.45
2019-05-23T06:39:57.602Z,94689.95
2019-05-23T06:44:59.919Z,94689.95
2019-05-23T06:50:02.086Z,94689.68
2019-05-23T06:55:06.060Z,94687.29
2019-05-23T07:00:09.188Z,94689.96
2019-05-23T07:05:11.780Z,94687.65
2019-05-23T07:10:13.812Z,94685.52
2019-05-23T07:15:16.022Z,94676.52
2019-05-23T07:20:18.612Z,94672.38
2019-05-23T07:25:20.894Z,94659.19
2019-05-23T07:30:24.950Z,94660.28
2019-05-23T07:35:27.063Z,94661.80
2019-05-23T07:40:29.401Z,94658.02
2019-05-23T07:45:39.627Z,94652.73
2019-05-23T07:50:40.725Z,94656.20
2019-05-23T07:55:47.512Z,94651.14
2019-05-23T08:00:51.404Z,94645.58
2019-05-23T08:05:53.576Z,94640.44
2019-05-23T08:10:55.410Z,94642.70
2019-05-23T08:15:57.641Z,94640.20
2019-05-23T08:20:59.569Z,94640.70
2019-05-23T08:26:01.787Z,94639.72
2019-05-23T08:31:05.210Z,94634.93
2019-05-23T08:36:07.974Z,94631.05
2019-05-23T08:41:11.512Z,94641.29
2019-05-23T08:46:14.721Z,94640.89
2019-05-23T08:51:16.782Z,94635.52
2019-05-23T08:56:19.852Z,94635.22
2019-05-23T09:01:22.348Z,94634.20
2019-05-23T09:06:24.326Z,94622.31
2019-05-23T09:11:26.266Z,94619.50
2019-05-23T09:16:33.099Z,94619.55
2019-05-23T09:21:33.876Z,94626.30
2019-05-23T09:26:36.210Z,94613.59
2019-05-23T09:31:38.950Z,94608.84
2019-05-23T09:36:41.425Z,94595.72
2019-05-23T09:41:43.408Z,94602.75
2019-05-23T09:46:45.380Z,94600.84
2019-05-23T09:51:48.873Z,94595.78
2019-05-23T09:56:51.892Z,94590.75
2019-05-23T10:01:54.060Z,94573.95
2019-05-23T10:06:56.401Z,94584.94
2019-05-23T10:11:58.457Z,94582.23
2019-05-23T10:17:00.537Z,94593.84
2019-05-23T10:22:05.007Z,94585.59
2019-05-23T10:27:08.919Z,94584.13
2019-05-23T10:32:12.712Z,94562.61
2019-05-23T10:37:16.542Z,94566.80
2019-05-23T10:42:19.127Z,94551.91
2019-05-23T10:47:21.074Z,94545.78
2019-05-23T10:52:23.305Z,94519.15
2019-05-23T10:57:25.483Z,94526.48
2019-05-23T11:02:28.032Z,94516.63
2019-05-23T11:07:30.476Z,94512.02
2019-05-23T11:12:32.113Z,94521.53
2019-05-23T11:17:34.962Z,94511.14
2019-05-23T11:22:40.131Z,94509.66
2019-05-23T11:27:43.777Z,94506.01
2019-05-23T11:32:45.999Z,94502.52
2019-05-23T11:37:47.940Z,94510.35
2019-05-23T11:42:52.589Z,94495.42
2019-05-23T11:47:54.126Z,94496.70
2019-05-23T11:52:56.277Z,94494.48
2019-05-23T11:57:59.479Z,94481.61
2019-05-23T12:03:01.754Z,94478.26
2019-05-23T12:08:03.817Z,94462.66
2019-05-23T12:13:05.950Z,94463.51
2019-05-23T12:18:09.175Z,94464.38
2019-05-23T12:23:11.364Z,94448.23
2019-05-23T12:28:13.638Z,94442.17
2019-05-23T12:33:15.828Z,94438.20
2019-05-23T12:38:18.150Z,94448.80
2019-05-23T12:43:23.849Z,94450.08
2019-05-23T12:48:27.518Z,94449.97
2019-05-23T12:53:29.513Z,94445.99
2019-05-23T12:58:33.280Z,94450.67
2019-05-23T13:03:38.194Z,94451.55
2019-05-23T13:08:41.169Z,94442.58
2019-05-23T13:13:42.993Z,94456.19
2019-05-23T13:18:44.842Z,94450.11
2019-05-23T13:23:46.945Z,94440.23
2019-05-23T13:28:49.286Z,94442.91
2019-05-23T13:33:51.511Z,94447.11
2019-05-23T13:38:53.491Z,94445.55
2019-05-23T13:43:55.598Z,94430.78
2019-05-23T13:48:57.720Z,94437.72
2019-05-23T13:53:59.818Z,94433.87
2019-05-23T13:59:01.872Z,94428.47
2019-05-23T14:04:04.765Z,94421.73
2019-05-23T14:09:07.337Z,94422.45
2019-05-23T14:14:10.407Z,94421.13
2019-05-23T14:19:13.240Z,94419.98
2019-05-23T14:24:15.271Z,94408.66
2019-05-23T14:29:17.352Z,94407.44
2019-05-23T14:34:20.122Z,94402.96
2019-05-23T14:39:24.126Z,94404.95
2019-05-23T14:44:26.567Z,94404.18
2019-05-23T14:49:30.323Z,94394.81
2019-05-23T14:54:34.029Z,94392.83
2019-05-23T14:59:35.848Z,94389.45
2019-05-23T15:04:37.891Z,94392.39
2019-05-23T15:09:40.021Z,94380.62
2019-05-23T15:14:42.097Z,94384.03
2019-05-23T15:19:45.240Z,94382.45
2019-05-23T15:24:47.610Z,94374.89
2019-05-23T15:29:49.541Z,94379.91
2019-05-23T15:34:51.448Z,94385.41
2019-05-23T15:39:53.375Z,94386.04
2019-05-23T15:44:55.267Z,94383.05
2019-05-23T15:50:00.285Z,94387.30
2019-05-23T15:55:07.137Z,94384.95
2019-05-23T16:00:27.446Z,94388.59
2019-05-23T16:05:30.278Z,94386.36
2019-05-23T16:10:33.882Z,94377.00
2019-05-23T16:15:35.893Z,94381.70
2019-05-23T16:20:38.820Z,94386.27
2019-05-23T16:25:40.703Z,94380.95
2019-05-23T16:30:42.668Z,94386.08
2019-05-23T16:35:45.000Z,94394.02
2019-05-23T16:40:49.384Z,94398.90
2019-05-23T16:45:51.683Z,94402.79
2019-05-23T16:50:53.575Z,94395.08
2019-05-23T16:56:06.859Z,94392.63
2019-05-23T17:01:24.113Z,94395.81
2019-05-23T17:06:37.929Z,94406.98
2019-05-23T17:11:41.695Z,94407.05
2019-05-23T17:17:05.506Z,94410.35
2019-05-23T17:22:13.994Z,94414.23
2019-05-23T17:27:23.547Z,94428.92
2019-05-23T17:32:28.970Z,94425.00
2019-05-23T17:37:31.979Z,94427.14
2019-05-23T17:42:34.316Z,94431.38
2019-05-23T17:47:39.552Z,94438.03
2019-05-23T17:52:41.831Z,94438.04
2019-05-23T17:57:45.281Z,94451.11
2019-05-23T18:02:47.598Z,94453.64
2019-05-23T18:07:50.214Z,94453.11
2019-05-23T18:12:56.080Z,94459.45
2019-05-23T18:17:59.095Z,94463.50
2019-05-23T18:23:05.687Z,94479.42
2019-05-23T18:28:09.048Z,94481.06
2019-05-23T18:33:14.872Z,94481.63
2019-05-23T18:38:17.981Z,94488.19
2019-05-23T18:43:23.337Z,94492.19
2019-05-23T18:48:27.138Z,94499.07
2019-05-23T18:53:29.361Z,94509.36
2019-05-23T18:58:31.584Z,94507.67
2019-05-23T19:03:34.858Z,94506.77
2019-05-23T19:08:37.514Z,94502.55
2019-05-23T19:13:39.808Z,94500.94
2019-05-23T19:18:42.040Z,94508.94
2019-05-23T19:23:44.357Z,94508.94
2019-05-23T19:28:46.783Z,94511.13
2019-05-23T19:33:49.555Z,94520.19
2019-05-23T19:38:51.914Z,94524.47
2019-05-23T19:43:53.857Z,94527.28
2019-05-23T19:48:57.635Z,94524.70
2019-05-23T19:54:00.575Z,94530.58
2019-05-23T19:59:03.909Z,94524.44
2019-05-23T20:04:08.129Z,94527.73
2019-05-23T20:09:12.765Z,94522.48
2019-05-23T20:14:14.815Z,94522.28
2019-05-23T20:19:16.855Z,94524.02
2019-05-23T20:24:18.985Z,94519.61
2019-05-23T20:29:21.417Z,94519.28
2019-05-23T20:34:24.991Z,94518.58
2019-05-23T20:39:27.779Z,94514.45
2019-05-23T20:44:29.618Z,94519.36
2019-05-23T20:49:31.794Z,94524.88
2019-05-23T20:54:34.114Z,94529.62
2019-05-23T20:59:36.767Z,94533.73
2019-05-23T21:04:38.980Z,94533.98
2019-05-23T21:09:40.816Z,94525.50
2019-05-23T21:14:42.738Z,94521.77
2019-05-23T21:19:44.828Z,94524.82
2019-05-23T21:24:46.885Z,94519.27
2019-05-23T21:29:48.761Z,94524.20
2019-05-23T21:34:50.715Z,94519.98
2019-05-23T21:39:52.969Z,94517.73
2019-05-23T21:44:55.033Z,94517.73
2019-05-23T21:49:56.858Z,94513.47
2019-05-23T21:54:58.833Z,94506.69
2019-05-23T22:00:00.815Z,94499.12
2019-05-23T22:05:09.407Z,94493.75
2019-05-23T22:10:11.722Z,94495.33
2019-05-23T22:15:19.106Z,94488.46
2019-05-23T22:20:21.116Z,94486.84
2019-05-23T22:25:29.703Z,94487.55
2019-05-23T22:30:31.721Z,94492.13
2019-05-23T22:35:33.777Z,94493.38
2019-05-23T22:40:38.355Z,94486.32
2019-05-23T22:45:39.499Z,94483.03
2019-05-23T22:50:41.395Z,94484.48
2019-05-23T22:55:43.426Z,94480.82
2019-05-23T23:00:47.178Z,94479.94
2019-05-23T23:05:49.469Z,94478.20
2019-05-23T23:10:51.383Z,94472.44
2019-05-23T23:15:53.248Z,94475.22
2019-05-23T23:20:55.217Z,94470.51
2019-05-23T23:25:57.091Z,94460.75
2019-05-23T23:30:59.055Z,94461.48
2019-05-23T23:36:00.926Z,94450.97
2019-05-23T23:41:02.940Z,94450.77
2019-05-23T23:46:23.339Z,94453.10
2019-05-23T23:51:43.891Z,94449.33
2019-05-23T23:57:04.484Z,94449.28
